sensor_id;sensor_type;location;lat;lon;timestamp;temperature;humidity
921;DHT22;447;51.332;6.778;2023-02-26T00:01:29;6.20;99.30
921;DHT22;447;51.332;6.778;2023-02-26T00:03:59;6.20;99.40
921;DHT22;447;51.332;6.778;2023-02-26T00:06:26;6.20;99.40
921;DHT22;447;51.332;6.778;2023-02-26T00:08:53;6.20;99.40
921;DHT22;447;51.332;6.778;2023-02-26T00:11:24;6.20;99.40
921;DHT22;447;51.332;6.778;2023-02-26T00:13:50;6.20;99.40
921;DHT22;447;51.332;6.778;2023-02-26T00:16:31;6.20;99.40
921;DHT22;447;51.332;6.778;2023-02-26T00:19:02;6.20;99.40
921;DHT22;447;51.332;6.778;2023-02-26T00:21:34;6.20;99.40
921;DHT22;447;51.332;6.778;2023-02-26T00:24:03;6.20;99.50
921;DHT22;447;51.332;6.778;2023-02-26T00:26:32;6.20;99.50
921;DHT22;447;51.332;6.778;2023-02-26T00:29:02;6.20;99.50
921;DHT22;447;51.332;6.778;2023-02-26T00:31:28;6.10;99.50
921;DHT22;447;51.332;6.778;2023-02-26T00:33:58;6.10;99.50
921;DHT22;447;51.332;6.778;2023-02-26T00:42:03;6.10;99.60
921;DHT22;447;51.332;6.778;2023-02-26T00:44:30;6.10;99.60
921;DHT22;447;51.332;6.778;2023-02-26T00:50:15;6.00;99.70
921;DHT22;447;51.332;6.778;2023-02-26T00:55:11;6.00;99.70
921;DHT22;447;51.332;6.778;2023-02-26T00:57:37;6.00;99.70
921;DHT22;447;51.332;6.778;2023-02-26T01:00:04;6.10;99.80
921;DHT22;447;51.332;6.778;2023-02-26T01:02:36;6.10;99.80
921;DHT22;447;51.332;6.778;2023-02-26T01:05:05;6.00;99.80
921;DHT22;447;51.332;6.778;2023-02-26T01:10:14;6.00;99.80
921;DHT22;447;51.332;6.778;2023-02-26T01:12:41;6.00;99.80
921;DHT22;447;51.332;6.778;2023-02-26T01:15:10;6.00;99.80
921;DHT22;447;51.332;6.778;2023-02-26T01:20:31;6.00;99.80
921;DHT22;447;51.332;6.778;2023-02-26T01:23:08;6.00;99.80
921;DHT22;447;51.332;6.778;2023-02-26T01:28:08;6.00;99.90
921;DHT22;447;51.332;6.778;2023-02-26T01:30:37;6.00;99.90
921;DHT22;447;51.332;6.778;2023-02-26T01:36:00;6.00;99.90
921;DHT22;447;51.332;6.778;2023-02-26T01:41:28;5.90;99.90
921;DHT22;447;51.332;6.778;2023-02-26T01:44:09;6.00;99.90
921;DHT22;447;51.332;6.778;2023-02-26T01:49:16;5.90;99.90
921;DHT22;447;51.332;6.778;2023-02-26T01:54:40;5.90;99.90
921;DHT22;447;51.332;6.778;2023-02-26T01:57:12;5.90;99.90
921;DHT22;447;51.332;6.778;2023-02-26T01:59:51;5.90;99.90
921;DHT22;447;51.332;6.778;2023-02-26T02:02:22;5.90;99.90
921;DHT22;447;51.332;6.778;2023-02-26T02:04:49;5.90;99.90
921;DHT22;447;51.332;6.778;2023-02-26T02:07:19;5.90;99.90
921;DHT22;447;51.332;6.778;2023-02-26T02:09:48;5.90;99.90
921;DHT22;447;51.332;6.778;2023-02-26T02:12:34;5.90;99.90
921;DHT22;447;51.332;6.778;2023-02-26T02:23:36;5.80;99.90
921;DHT22;447;51.332;6.778;2023-02-26T02:29:32;5.80;99.90
921;DHT22;447;51.332;6.778;2023-02-26T02:32:17;5.80;99.90
921;DHT22;447;51.332;6.778;2023-02-26T02:34:57;5.80;99.90
921;DHT22;447;51.332;6.778;2023-02-26T02:40:10;5.80;99.90
921;DHT22;447;51.332;6.778;2023-02-26T02:42:48;5.80;99.90
921;DHT22;447;51.332;6.778;2023-02-26T02:48:15;5.70;99.90
921;DHT22;447;51.332;6.778;2023-02-26T02:50:46;5.70;99.90
921;DHT22;447;51.332;6.778;2023-02-26T02:55:58;5.80;99.90
921;DHT22;447;51.332;6.778;2023-02-26T02:58:30;5.80;99.90
921;DHT22;447;51.332;6.778;2023-02-26T03:01:00;5.80;99.90
921;DHT22;447;51.332;6.778;2023-02-26T03:03:55;5.80;99.90
921;DHT22;447;51.332;6.778;2023-02-26T03:06:25;5.80;99.90
921;DHT22;447;51.332;6.778;2023-02-26T03:08:51;5.80;99.90
921;DHT22;447;51.332;6.778;2023-02-26T03:11:18;5.70;99.90
921;DHT22;447;51.332;6.778;2023-02-26T03:13:45;5.70;99.90
921;DHT22;447;51.332;6.778;2023-02-26T03:19:28;5.70;99.90
921;DHT22;447;51.332;6.778;2023-02-26T03:27:34;5.70;99.90
921;DHT22;447;51.332;6.778;2023-02-26T03:30:13;5.70;99.90
921;DHT22;447;51.332;6.778;2023-02-26T03:41:02;5.60;99.90
921;DHT22;447;51.332;6.778;2023-02-26T03:43:42;5.60;99.90
921;DHT22;447;51.332;6.778;2023-02-26T03:46:28;5.60;99.90
921;DHT22;447;51.332;6.778;2023-02-26T03:48:59;5.60;99.90
921;DHT22;447;51.332;6.778;2023-02-26T03:51:27;5.60;99.90
921;DHT22;447;51.332;6.778;2023-02-26T03:54:28;5.60;99.90
921;DHT22;447;51.332;6.778;2023-02-26T03:57:13;5.60;99.90
921;DHT22;447;51.332;6.778;2023-02-26T03:59:58;5.60;99.90
921;DHT22;447;51.332;6.778;2023-02-26T04:02:41;5.50;99.90
921;DHT22;447;51.332;6.778;2023-02-26T04:05:21;5.60;99.90
921;DHT22;447;51.332;6.778;2023-02-26T04:07:50;5.60;99.90
921;DHT22;447;51.332;6.778;2023-02-26T04:10:23;5.60;99.90
921;DHT22;447;51.332;6.778;2023-02-26T04:12:50;5.60;99.90
921;DHT22;447;51.332;6.778;2023-02-26T04:15:19;5.60;99.90
921;DHT22;447;51.332;6.778;2023-02-26T04:17:49;5.60;99.90
921;DHT22;447;51.332;6.778;2023-02-26T04:20:15;5.60;99.90
921;DHT22;447;51.332;6.778;2023-02-26T04:22:44;5.50;99.90
921;DHT22;447;51.332;6.778;2023-02-26T04:25:12;5.50;99.90
921;DHT22;447;51.332;6.778;2023-02-26T04:27:41;5.50;99.90
921;DHT22;447;51.332;6.778;2023-02-26T04:30:14;5.50;99.90
921;DHT22;447;51.332;6.778;2023-02-26T04:32:43;5.50;99.90
921;DHT22;447;51.332;6.778;2023-02-26T04:35:10;5.50;99.90
921;DHT22;447;51.332;6.778;2023-02-26T04:37:38;5.50;99.90
921;DHT22;447;51.332;6.778;2023-02-26T04:40:07;5.50;99.90
921;DHT22;447;51.332;6.778;2023-02-26T04:42:36;5.50;99.90
921;DHT22;447;51.332;6.778;2023-02-26T04:45:07;5.50;99.90
921;DHT22;447;51.332;6.778;2023-02-26T04:47:36;5.50;99.90
921;DHT22;447;51.332;6.778;2023-02-26T04:50:02;5.50;99.90
921;DHT22;447;51.332;6.778;2023-02-26T04:52:32;5.50;99.90
921;DHT22;447;51.332;6.778;2023-02-26T04:54:58;5.50;99.90
921;DHT22;447;51.332;6.778;2023-02-26T04:57:24;5.50;99.90
921;DHT22;447;51.332;6.778;2023-02-26T04:59:50;5.40;99.90
921;DHT22;447;51.332;6.778;2023-02-26T05:02:16;5.40;99.90
921;DHT22;447;51.332;6.778;2023-02-26T05:04:46;5.40;99.90
921;DHT22;447;51.332;6.778;2023-02-26T05:07:15;5.40;99.90
921;DHT22;447;51.332;6.778;2023-02-26T05:09:41;5.40;99.90
921;DHT22;447;51.332;6.778;2023-02-26T05:12:07;5.40;99.90
921;DHT22;447;51.332;6.778;2023-02-26T05:14:35;5.40;99.90
921;DHT22;447;51.332;6.778;2023-02-26T05:17:04;5.40;99.90
921;DHT22;447;51.332;6.778;2023-02-26T05:19:30;5.40;99.90
921;DHT22;447;51.332;6.778;2023-02-26T05:22:01;5.40;99.90
921;DHT22;447;51.332;6.778;2023-02-26T05:24:29;5.40;99.90
921;DHT22;447;51.332;6.778;2023-02-26T05:26:59;5.40;99.90
921;DHT22;447;51.332;6.778;2023-02-26T05:29:29;5.40;99.90
921;DHT22;447;51.332;6.778;2023-02-26T05:31:56;5.30;99.90
921;DHT22;447;51.332;6.778;2023-02-26T05:34:22;5.30;99.90
921;DHT22;447;51.332;6.778;2023-02-26T05:36:48;5.30;99.90
921;DHT22;447;51.332;6.778;2023-02-26T05:39:14;5.30;99.90
921;DHT22;447;51.332;6.778;2023-02-26T05:41:40;5.30;99.90
921;DHT22;447;51.332;6.778;2023-02-26T05:44:06;5.30;99.90
921;DHT22;447;51.332;6.778;2023-02-26T05:46:34;5.30;99.90
921;DHT22;447;51.332;6.778;2023-02-26T05:49:00;5.30;99.90
921;DHT22;447;51.332;6.778;2023-02-26T05:51:26;5.30;99.90
921;DHT22;447;51.332;6.778;2023-02-26T05:53:53;5.30;99.90
921;DHT22;447;51.332;6.778;2023-02-26T05:56:22;5.30;99.90
921;DHT22;447;51.332;6.778;2023-02-26T05:58:51;5.30;99.90
921;DHT22;447;51.332;6.778;2023-02-26T06:01:17;5.30;99.90
921;DHT22;447;51.332;6.778;2023-02-26T06:03:43;5.30;99.90
921;DHT22;447;51.332;6.778;2023-02-26T06:06:10;5.20;99.90
921;DHT22;447;51.332;6.778;2023-02-26T06:08:37;5.30;99.90
921;DHT22;447;51.332;6.778;2023-02-26T06:11:03;5.20;99.90
921;DHT22;447;51.332;6.778;2023-02-26T06:13:32;5.20;99.90
921;DHT22;447;51.332;6.778;2023-02-26T06:15:58;5.20;99.90
921;DHT22;447;51.332;6.778;2023-02-26T06:18:25;5.20;99.90
921;DHT22;447;51.332;6.778;2023-02-26T06:20:52;5.20;99.90
921;DHT22;447;51.332;6.778;2023-02-26T06:23:20;5.20;99.90
921;DHT22;447;51.332;6.778;2023-02-26T06:25:46;5.20;99.90
921;DHT22;447;51.332;6.778;2023-02-26T06:28:12;5.20;99.90
921;DHT22;447;51.332;6.778;2023-02-26T06:30:41;5.20;99.90
921;DHT22;447;51.332;6.778;2023-02-26T06:33:13;5.20;99.90
921;DHT22;447;51.332;6.778;2023-02-26T06:35:39;5.20;99.90
921;DHT22;447;51.332;6.778;2023-02-26T06:38:07;5.20;99.90
921;DHT22;447;51.332;6.778;2023-02-26T06:40:38;5.20;99.90
921;DHT22;447;51.332;6.778;2023-02-26T06:43:04;5.10;99.90
921;DHT22;447;51.332;6.778;2023-02-26T06:45:32;5.10;99.90
921;DHT22;447;51.332;6.778;2023-02-26T06:48:01;5.10;99.90
921;DHT22;447;51.332;6.778;2023-02-26T06:50:27;5.10;99.90
921;DHT22;447;51.332;6.778;2023-02-26T06:52:54;5.10;99.90
921;DHT22;447;51.332;6.778;2023-02-26T06:55:21;5.10;99.90
921;DHT22;447;51.332;6.778;2023-02-26T06:57:53;5.10;99.90
921;DHT22;447;51.332;6.778;2023-02-26T07:00:23;5.10;99.90
921;DHT22;447;51.332;6.778;2023-02-26T07:02:52;5.10;99.90
921;DHT22;447;51.332;6.778;2023-02-26T07:05:18;5.10;99.90
921;DHT22;447;51.332;6.778;2023-02-26T07:07:44;5.10;99.90
921;DHT22;447;51.332;6.778;2023-02-26T07:10:11;5.10;99.90
921;DHT22;447;51.332;6.778;2023-02-26T07:12:37;5.10;99.90
921;DHT22;447;51.332;6.778;2023-02-26T07:15:05;5.10;99.90
921;DHT22;447;51.332;6.778;2023-02-26T07:17:34;5.10;99.90
921;DHT22;447;51.332;6.778;2023-02-26T07:20:00;5.10;99.90
921;DHT22;447;51.332;6.778;2023-02-26T07:22:33;5.00;99.90
921;DHT22;447;51.332;6.778;2023-02-26T07:24:59;5.10;99.90
921;DHT22;447;51.332;6.778;2023-02-26T07:27:31;5.00;99.90
921;DHT22;447;51.332;6.778;2023-02-26T07:29:58;5.00;99.90
921;DHT22;447;51.332;6.778;2023-02-26T07:32:25;5.00;99.90
921;DHT22;447;51.332;6.778;2023-02-26T07:34:54;5.00;99.90
921;DHT22;447;51.332;6.778;2023-02-26T07:37:20;5.00;99.90
921;DHT22;447;51.332;6.778;2023-02-26T07:39:46;5.00;99.90
921;DHT22;447;51.332;6.778;2023-02-26T07:42:14;4.90;99.90
921;DHT22;447;51.332;6.778;2023-02-26T07:44:43;5.00;99.90
921;DHT22;447;51.332;6.778;2023-02-26T07:47:10;5.00;99.90
921;DHT22;447;51.332;6.778;2023-02-26T07:49:36;4.90;99.90
921;DHT22;447;51.332;6.778;2023-02-26T07:52:05;4.90;99.90
921;DHT22;447;51.332;6.778;2023-02-26T07:54:35;4.90;99.90
921;DHT22;447;51.332;6.778;2023-02-26T07:57:04;4.90;99.90
921;DHT22;447;51.332;6.778;2023-02-26T07:59:30;4.90;99.90
921;DHT22;447;51.332;6.778;2023-02-26T08:01:56;4.90;99.90
921;DHT22;447;51.332;6.778;2023-02-26T08:04:22;4.90;99.90
921;DHT22;447;51.332;6.778;2023-02-26T08:06:48;4.90;99.90
921;DHT22;447;51.332;6.778;2023-02-26T08:09:16;4.90;99.90
921;DHT22;447;51.332;6.778;2023-02-26T08:11:45;4.90;99.90
921;DHT22;447;51.332;6.778;2023-02-26T08:14:12;4.90;99.90
921;DHT22;447;51.332;6.778;2023-02-26T08:16:41;4.90;99.90
921;DHT22;447;51.332;6.778;2023-02-26T08:19:07;4.90;99.90
921;DHT22;447;51.332;6.778;2023-02-26T08:21:33;4.90;99.90
921;DHT22;447;51.332;6.778;2023-02-26T08:24:01;4.90;99.90
921;DHT22;447;51.332;6.778;2023-02-26T08:26:27;4.90;99.90
921;DHT22;447;51.332;6.778;2023-02-26T08:28:53;4.90;99.80
921;DHT22;447;51.332;6.778;2023-02-26T08:31:26;4.90;99.70
921;DHT22;447;51.332;6.778;2023-02-26T08:33:59;4.90;99.70
921;DHT22;447;51.332;6.778;2023-02-26T08:36:28;4.90;99.60
921;DHT22;447;51.332;6.778;2023-02-26T08:38:59;4.90;99.70
921;DHT22;447;51.332;6.778;2023-02-26T08:41:29;4.90;99.60
921;DHT22;447;51.332;6.778;2023-02-26T08:43:58;4.90;99.60
921;DHT22;447;51.332;6.778;2023-02-26T08:46:24;4.90;99.60
921;DHT22;447;51.332;6.778;2023-02-26T08:48:53;4.90;99.50
921;DHT22;447;51.332;6.778;2023-02-26T08:51:20;4.90;99.50
921;DHT22;447;51.332;6.778;2023-02-26T08:53:46;4.90;99.40
921;DHT22;447;51.332;6.778;2023-02-26T08:56:12;4.90;99.40
921;DHT22;447;51.332;6.778;2023-02-26T08:58:39;4.90;99.30
921;DHT22;447;51.332;6.778;2023-02-26T09:01:05;4.90;99.30
921;DHT22;447;51.332;6.778;2023-02-26T09:03:36;4.90;99.20
921;DHT22;447;51.332;6.778;2023-02-26T09:06:02;4.90;99.30
921;DHT22;447;51.332;6.778;2023-02-26T09:08:30;4.90;99.30
921;DHT22;447;51.332;6.778;2023-02-26T09:11:02;4.90;99.20
921;DHT22;447;51.332;6.778;2023-02-26T09:13:29;4.90;99.20
921;DHT22;447;51.332;6.778;2023-02-26T09:15:58;4.90;99.10
921;DHT22;447;51.332;6.778;2023-02-26T09:18:27;4.90;99.00
921;DHT22;447;51.332;6.778;2023-02-26T09:20:55;4.90;99.10
921;DHT22;447;51.332;6.778;2023-02-26T09:23:21;4.90;99.00
921;DHT22;447;51.332;6.778;2023-02-26T09:25:54;5.00;99.00
921;DHT22;447;51.332;6.778;2023-02-26T09:28:22;5.00;99.00
921;DHT22;447;51.332;6.778;2023-02-26T09:30:53;5.00;98.80
921;DHT22;447;51.332;6.778;2023-02-26T09:33:20;5.00;98.60
921;DHT22;447;51.332;6.778;2023-02-26T09:35:49;5.00;98.60
921;DHT22;447;51.332;6.778;2023-02-26T09:38:16;5.00;98.60
921;DHT22;447;51.332;6.778;2023-02-26T09:41:02;5.00;98.50
921;DHT22;447;51.332;6.778;2023-02-26T09:46:05;5.00;98.40
921;DHT22;447;51.332;6.778;2023-02-26T09:48:37;5.00;98.40
921;DHT22;447;51.332;6.778;2023-02-26T09:51:08;5.00;98.30
921;DHT22;447;51.332;6.778;2023-02-26T09:53:38;5.00;98.50
921;DHT22;447;51.332;6.778;2023-02-26T09:56:23;5.00;98.40
921;DHT22;447;51.332;6.778;2023-02-26T09:58:50;5.00;98.30
921;DHT22;447;51.332;6.778;2023-02-26T10:01:33;5.00;98.20
921;DHT22;447;51.332;6.778;2023-02-26T10:04:23;5.00;98.20
921;DHT22;447;51.332;6.778;2023-02-26T10:10:01;5.10;98.20
921;DHT22;447;51.332;6.778;2023-02-26T10:12:29;5.10;98.10
921;DHT22;447;51.332;6.778;2023-02-26T10:17:59;5.10;97.90
921;DHT22;447;51.332;6.778;2023-02-26T10:25:48;5.20;97.90
921;DHT22;447;51.332;6.778;2023-02-26T10:28:43;5.20;97.80
921;DHT22;447;51.332;6.778;2023-02-26T10:36:24;5.20;97.70
921;DHT22;447;51.332;6.778;2023-02-26T10:39:02;5.20;97.70
921;DHT22;447;51.332;6.778;2023-02-26T10:41:33;5.20;97.70
921;DHT22;447;51.332;6.778;2023-02-26T10:44:12;5.20;97.60
921;DHT22;447;51.332;6.778;2023-02-26T10:47:14;5.20;97.70
921;DHT22;447;51.332;6.778;2023-02-26T10:50:00;5.30;97.80
921;DHT22;447;51.332;6.778;2023-02-26T10:52:29;5.30;97.80
921;DHT22;447;51.332;6.778;2023-02-26T10:58:15;5.30;97.80
921;DHT22;447;51.332;6.778;2023-02-26T11:00:44;5.30;97.80
921;DHT22;447;51.332;6.778;2023-02-26T11:03:39;5.40;97.70
921;DHT22;447;51.332;6.778;2023-02-26T11:06:09;5.30;97.70
921;DHT22;447;51.332;6.778;2023-02-26T11:08:42;5.40;97.70
921;DHT22;447;51.332;6.778;2023-02-26T11:11:10;5.40;97.60
921;DHT22;447;51.332;6.778;2023-02-26T11:13:37;5.40;97.60
921;DHT22;447;51.332;6.778;2023-02-26T11:16:14;5.40;97.60
921;DHT22;447;51.332;6.778;2023-02-26T11:18:47;5.50;97.70
921;DHT22;447;51.332;6.778;2023-02-26T11:21:28;5.50;97.70
921;DHT22;447;51.332;6.778;2023-02-26T11:24:16;5.50;97.50
921;DHT22;447;51.332;6.778;2023-02-26T11:26:47;5.60;97.40
921;DHT22;447;51.332;6.778;2023-02-26T11:29:20;5.60;97.40
921;DHT22;447;51.332;6.778;2023-02-26T11:31:51;5.60;97.30
921;DHT22;447;51.332;6.778;2023-02-26T11:34:22;5.60;97.30
921;DHT22;447;51.332;6.778;2023-02-26T11:36:56;5.60;97.30
921;DHT22;447;51.332;6.778;2023-02-26T11:39:25;5.60;97.20
921;DHT22;447;51.332;6.778;2023-02-26T11:41:55;5.60;97.10
921;DHT22;447;51.332;6.778;2023-02-26T11:44:40;5.70;97.10
921;DHT22;447;51.332;6.778;2023-02-26T11:47:14;5.70;96.90
921;DHT22;447;51.332;6.778;2023-02-26T11:49:50;5.70;96.80
921;DHT22;447;51.332;6.778;2023-02-26T11:52:31;5.70;96.80
921;DHT22;447;51.332;6.778;2023-02-26T11:55:59;5.70;96.70
921;DHT22;447;51.332;6.778;2023-02-26T11:58:18;5.80;96.60
921;DHT22;447;51.332;6.778;2023-02-26T12:00:47;5.70;96.60
921;DHT22;447;51.332;6.778;2023-02-26T12:03:22;5.80;96.50
921;DHT22;447;51.332;6.778;2023-02-26T12:05:49;5.80;96.40
921;DHT22;447;51.332;6.778;2023-02-26T12:28:02;5.90;96.00
921;DHT22;447;51.332;6.778;2023-02-26T12:36:35;5.90;96.00
921;DHT22;447;51.332;6.778;2023-02-26T12:42:17;5.90;95.90
921;DHT22;447;51.332;6.778;2023-02-26T12:50:07;5.90;95.40
921;DHT22;447;51.332;6.778;2023-02-26T12:58:51;6.00;95.60
921;DHT22;447;51.332;6.778;2023-02-26T13:04:38;6.00;95.60
921;DHT22;447;51.332;6.778;2023-02-26T13:12:53;6.00;95.20
921;DHT22;447;51.332;6.778;2023-02-26T13:19:35;6.10;95.10
921;DHT22;447;51.332;6.778;2023-02-26T13:21:44;6.10;95.20
921;DHT22;447;51.332;6.778;2023-02-26T13:24:16;6.00;95.30
921;DHT22;447;51.332;6.778;2023-02-26T13:26:46;6.00;95.50
921;DHT22;447;51.332;6.778;2023-02-26T13:29:22;6.10;95.60
921;DHT22;447;51.332;6.778;2023-02-26T13:31:54;6.00;95.60
921;DHT22;447;51.332;6.778;2023-02-26T13:36:53;6.10;95.60
921;DHT22;447;51.332;6.778;2023-02-26T13:39:41;6.10;95.50
921;DHT22;447;51.332;6.778;2023-02-26T13:42:29;6.10;95.30
921;DHT22;447;51.332;6.778;2023-02-26T13:53:53;6.10;95.00
921;DHT22;447;51.332;6.778;2023-02-26T14:01:33;6.10;95.00
921;DHT22;447;51.332;6.778;2023-02-26T14:04:25;6.20;94.90
921;DHT22;447;51.332;6.778;2023-02-26T14:14:43;6.20;94.60
921;DHT22;447;51.332;6.778;2023-02-26T14:27:34;6.20;94.30
921;DHT22;447;51.332;6.778;2023-02-26T14:38:17;6.20;94.10
921;DHT22;447;51.332;6.778;2023-02-26T14:40:52;6.20;94.30
921;DHT22;447;51.332;6.778;2023-02-26T14:43:40;6.20;94.30
921;DHT22;447;51.332;6.778;2023-02-26T14:46:10;6.20;94.40
921;DHT22;447;51.332;6.778;2023-02-26T14:48:42;6.30;94.30
921;DHT22;447;51.332;6.778;2023-02-26T14:54:42;6.30;94.20
921;DHT22;447;51.332;6.778;2023-02-26T15:03:11;6.30;93.90
921;DHT22;447;51.332;6.778;2023-02-26T15:06:08;6.30;93.90
921;DHT22;447;51.332;6.778;2023-02-26T15:24:32;6.30;93.90
921;DHT22;447;51.332;6.778;2023-02-26T15:27:01;6.30;93.90
921;DHT22;447;51.332;6.778;2023-02-26T15:29:33;6.30;93.90
921;DHT22;447;51.332;6.778;2023-02-26T15:32:07;6.30;93.70
921;DHT22;447;51.332;6.778;2023-02-26T15:34:45;6.30;93.70
921;DHT22;447;51.332;6.778;2023-02-26T15:37:23;6.30;93.70
921;DHT22;447;51.332;6.778;2023-02-26T15:39:53;6.30;93.90
921;DHT22;447;51.332;6.778;2023-02-26T15:42:21;6.30;94.10
921;DHT22;447;51.332;6.778;2023-02-26T15:44:49;6.30;94.10
921;DHT22;447;51.332;6.778;2023-02-26T15:47:16;6.30;94.00
921;DHT22;447;51.332;6.778;2023-02-26T15:49:45;6.30;94.00
921;DHT22;447;51.332;6.778;2023-02-26T15:52:18;6.30;94.00
921;DHT22;447;51.332;6.778;2023-02-26T15:57:17;6.30;94.20
921;DHT22;447;51.332;6.778;2023-02-26T15:59:48;6.40;94.30
921;DHT22;447;51.332;6.778;2023-02-26T16:02:19;6.40;94.30
921;DHT22;447;51.332;6.778;2023-02-26T16:04:48;6.40;94.40
921;DHT22;447;51.332;6.778;2023-02-26T16:07:14;6.40;94.30
921;DHT22;447;51.332;6.778;2023-02-26T16:09:45;6.30;94.30
921;DHT22;447;51.332;6.778;2023-02-26T16:14:57;6.30;94.40
921;DHT22;447;51.332;6.778;2023-02-26T16:17:33;6.30;94.40
921;DHT22;447;51.332;6.778;2023-02-26T16:20:05;6.30;94.70
921;DHT22;447;51.332;6.778;2023-02-26T16:22:36;6.30;94.30
921;DHT22;447;51.332;6.778;2023-02-26T16:28:04;6.30;94.50
921;DHT22;447;51.332;6.778;2023-02-26T16:30:36;6.30;94.50
921;DHT22;447;51.332;6.778;2023-02-26T16:33:09;6.30;94.50
921;DHT22;447;51.332;6.778;2023-02-26T16:35:42;6.30;94.70
921;DHT22;447;51.332;6.778;2023-02-26T16:40:43;6.30;94.40
921;DHT22;447;51.332;6.778;2023-02-26T16:45:55;6.30;94.60
921;DHT22;447;51.332;6.778;2023-02-26T16:48:43;6.30;94.70
921;DHT22;447;51.332;6.778;2023-02-26T16:51:17;6.30;94.90
921;DHT22;447;51.332;6.778;2023-02-26T16:53:53;6.30;95.00
921;DHT22;447;51.332;6.778;2023-02-26T16:56:31;6.30;95.00
921;DHT22;447;51.332;6.778;2023-02-26T17:01:35;6.30;94.90
921;DHT22;447;51.332;6.778;2023-02-26T17:04:03;6.30;95.00
921;DHT22;447;51.332;6.778;2023-02-26T17:06:37;6.30;94.90
921;DHT22;447;51.332;6.778;2023-02-26T17:09:06;6.30;94.80
921;DHT22;447;51.332;6.778;2023-02-26T17:11:40;6.30;94.70
921;DHT22;447;51.332;6.778;2023-02-26T17:14:23;6.30;94.80
921;DHT22;447;51.332;6.778;2023-02-26T17:16:56;6.30;95.10
921;DHT22;447;51.332;6.778;2023-02-26T17:19:22;6.30;95.10
921;DHT22;447;51.332;6.778;2023-02-26T17:21:58;6.30;95.10
921;DHT22;447;51.332;6.778;2023-02-26T17:24:36;6.30;95.10
921;DHT22;447;51.332;6.778;2023-02-26T17:27:09;6.30;94.90
921;DHT22;447;51.332;6.778;2023-02-26T17:29:42;6.30;94.90
921;DHT22;447;51.332;6.778;2023-02-26T17:32:19;6.30;94.90
921;DHT22;447;51.332;6.778;2023-02-26T17:34:46;6.30;94.90
921;DHT22;447;51.332;6.778;2023-02-26T17:37:13;6.30;95.00
921;DHT22;447;51.332;6.778;2023-02-26T17:39:40;6.20;94.90
921;DHT22;447;51.332;6.778;2023-02-26T17:42:16;6.20;95.00
921;DHT22;447;51.332;6.778;2023-02-26T17:44:44;6.30;95.20
921;DHT22;447;51.332;6.778;2023-02-26T17:47:20;6.20;95.10
921;DHT22;447;51.332;6.778;2023-02-26T17:49:51;6.30;95.20
921;DHT22;447;51.332;6.778;2023-02-26T17:52:18;6.30;95.20
921;DHT22;447;51.332;6.778;2023-02-26T17:54:47;6.30;95.30
921;DHT22;447;51.332;6.778;2023-02-26T17:57:19;6.20;95.30
921;DHT22;447;51.332;6.778;2023-02-26T17:59:46;6.20;95.30
921;DHT22;447;51.332;6.778;2023-02-26T18:02:21;6.20;95.40
921;DHT22;447;51.332;6.778;2023-02-26T18:04:48;6.30;95.60
921;DHT22;447;51.332;6.778;2023-02-26T18:07:15;6.20;95.60
921;DHT22;447;51.332;6.778;2023-02-26T18:09:45;6.30;95.70
921;DHT22;447;51.332;6.778;2023-02-26T18:12:18;6.20;95.70
921;DHT22;447;51.332;6.778;2023-02-26T18:14:48;6.30;95.80
921;DHT22;447;51.332;6.778;2023-02-26T18:17:22;6.30;95.80
921;DHT22;447;51.332;6.778;2023-02-26T18:19:48;6.20;95.70
921;DHT22;447;51.332;6.778;2023-02-26T18:22:19;6.20;95.80
921;DHT22;447;51.332;6.778;2023-02-26T18:24:45;6.20;95.90
921;DHT22;447;51.332;6.778;2023-02-26T18:27:18;6.20;96.00
921;DHT22;447;51.332;6.778;2023-02-26T18:29:46;6.20;96.00
921;DHT22;447;51.332;6.778;2023-02-26T18:32:21;6.20;96.30
921;DHT22;447;51.332;6.778;2023-02-26T18:34:52;6.20;96.10
921;DHT22;447;51.332;6.778;2023-02-26T18:37:23;6.20;96.10
921;DHT22;447;51.332;6.778;2023-02-26T18:39:52;6.20;96.10
921;DHT22;447;51.332;6.778;2023-02-26T18:42:24;6.20;96.20
921;DHT22;447;51.332;6.778;2023-02-26T18:44:51;6.20;96.30
921;DHT22;447;51.332;6.778;2023-02-26T18:47:19;6.20;96.30
921;DHT22;447;51.332;6.778;2023-02-26T18:49:49;6.20;96.30
921;DHT22;447;51.332;6.778;2023-02-26T18:52:16;6.20;96.40
921;DHT22;447;51.332;6.778;2023-02-26T18:54:45;6.20;96.40
921;DHT22;447;51.332;6.778;2023-02-26T18:57:13;6.20;96.50
921;DHT22;447;51.332;6.778;2023-02-26T18:59:40;6.20;96.50
921;DHT22;447;51.332;6.778;2023-02-26T19:02:06;6.20;96.50
921;DHT22;447;51.332;6.778;2023-02-26T19:04:35;6.20;96.60
921;DHT22;447;51.332;6.778;2023-02-26T19:07:01;6.20;96.60
921;DHT22;447;51.332;6.778;2023-02-26T19:09:27;6.20;96.60
921;DHT22;447;51.332;6.778;2023-02-26T19:11:54;6.20;96.60
921;DHT22;447;51.332;6.778;2023-02-26T19:14:20;6.20;96.70
921;DHT22;447;51.332;6.778;2023-02-26T19:16:49;6.20;96.70
921;DHT22;447;51.332;6.778;2023-02-26T19:19:18;6.20;96.70
921;DHT22;447;51.332;6.778;2023-02-26T19:21:44;6.20;96.80
921;DHT22;447;51.332;6.778;2023-02-26T19:24:14;6.10;96.80
921;DHT22;447;51.332;6.778;2023-02-26T19:26:41;6.10;96.80
921;DHT22;447;51.332;6.778;2023-02-26T19:29:14;6.20;96.90
921;DHT22;447;51.332;6.778;2023-02-26T19:31:42;6.20;96.90
921;DHT22;447;51.332;6.778;2023-02-26T19:34:16;6.20;96.90
921;DHT22;447;51.332;6.778;2023-02-26T19:36:42;6.20;96.90
921;DHT22;447;51.332;6.778;2023-02-26T19:39:14;6.10;96.90
921;DHT22;447;51.332;6.778;2023-02-26T19:41:40;6.20;96.90
921;DHT22;447;51.332;6.778;2023-02-26T19:44:10;6.10;96.90
921;DHT22;447;51.332;6.778;2023-02-26T19:46:37;6.20;97.00
921;DHT22;447;51.332;6.778;2023-02-26T19:49:03;6.10;97.00
921;DHT22;447;51.332;6.778;2023-02-26T19:51:29;6.20;97.00
921;DHT22;447;51.332;6.778;2023-02-26T19:53:58;6.20;97.00
921;DHT22;447;51.332;6.778;2023-02-26T19:56:25;6.10;97.00
921;DHT22;447;51.332;6.778;2023-02-26T19:58:55;6.10;97.00
921;DHT22;447;51.332;6.778;2023-02-26T20:01:21;6.10;97.10
921;DHT22;447;51.332;6.778;2023-02-26T20:03:50;6.10;97.10
921;DHT22;447;51.332;6.778;2023-02-26T20:06:17;6.20;97.10
921;DHT22;447;51.332;6.778;2023-02-26T20:08:46;6.10;97.10
921;DHT22;447;51.332;6.778;2023-02-26T20:11:12;6.10;97.10
921;DHT22;447;51.332;6.778;2023-02-26T20:13:39;6.10;97.20
921;DHT22;447;51.332;6.778;2023-02-26T20:16:07;6.10;97.20
921;DHT22;447;51.332;6.778;2023-02-26T20:18:36;6.10;97.20
921;DHT22;447;51.332;6.778;2023-02-26T20:21:09;6.10;97.30
921;DHT22;447;51.332;6.778;2023-02-26T20:23:38;6.10;97.30
921;DHT22;447;51.332;6.778;2023-02-26T20:26:10;6.10;97.30
921;DHT22;447;51.332;6.778;2023-02-26T20:28:39;6.10;97.30
921;DHT22;447;51.332;6.778;2023-02-26T20:31:11;6.10;97.30
921;DHT22;447;51.332;6.778;2023-02-26T20:33:37;6.10;97.40
921;DHT22;447;51.332;6.778;2023-02-26T20:36:08;6.10;97.40
921;DHT22;447;51.332;6.778;2023-02-26T20:38:38;6.10;97.40
921;DHT22;447;51.332;6.778;2023-02-26T20:41:05;6.10;97.50
921;DHT22;447;51.332;6.778;2023-02-26T20:43:32;6.10;97.50
921;DHT22;447;51.332;6.778;2023-02-26T20:46:01;6.10;97.60
921;DHT22;447;51.332;6.778;2023-02-26T20:48:27;6.10;97.60
921;DHT22;447;51.332;6.778;2023-02-26T20:50:58;6.00;97.50
921;DHT22;447;51.332;6.778;2023-02-26T20:53:25;6.10;97.60
921;DHT22;447;51.332;6.778;2023-02-26T20:55:51;6.00;97.60
921;DHT22;447;51.332;6.778;2023-02-26T20:58:17;6.10;97.70
921;DHT22;447;51.332;6.778;2023-02-26T21:00:44;6.00;97.60
921;DHT22;447;51.332;6.778;2023-02-26T21:03:10;6.00;97.60